Time;durP1;ratioP1;P1;durP2;ratioP2;P2;SDS_P1;SDS_P2;PMS_P1;PMS_P2;Temp;Humidity;BMP_temperature;BMP_pressure;BME280_temperature;BME280_humidity;BME280_pressure;Samples;Min_cycle;Max_cycle;Signal;HPM_P1;HPM_P2
2023/12/12 00:00:20;;;;;;;7.03;1.50;;;12.00;99.90;;;;;;5089470;28;20275;-81
2023/12/12 00:02:46;;;;;;;5.90;1.50;;;12.00;99.90;;;;;;5090828;28;20175;-81
2023/12/12 00:05:13;;;;;;;10.63;2.60;;;11.90;99.90;;;;;;5090214;28;20962;-82
2023/12/12 00:07:39;;;;;;;7.75;2.30;;;11.90;99.90;;;;;;5072592;28;20195;-82
2023/12/12 00:10:06;;;;;;;12.13;2.30;;;11.90;99.90;;;;;;5076124;28;20184;-81
2023/12/12 00:12:31;;;;;;;6.35;1.50;;;11.90;99.90;;;;;;5076176;28;20198;-81
2023/12/12 00:14:57;;;;;;;6.03;1.87;;;11.90;99.90;;;;;;5094265;28;20207;-82
2023/12/12 00:17:23;;;;;;;8.83;1.70;;;11.90;99.90;;;;;;5072666;28;21140;-82
2023/12/12 00:19:48;;;;;;;8.80;2.40;;;11.80;99.90;;;;;;5061680;28;20210;-82
2023/12/12 00:22:14;;;;;;;5.43;1.70;;;11.80;99.90;;;;;;5080557;28;20628;-81
2023/12/12 00:24:40;;;;;;;8.13;1.67;;;11.80;99.90;;;;;;5094286;28;20703;-81
2023/12/12 00:27:05;;;;;;;6.40;1.77;;;11.80;99.90;;;;;;5094427;28;20174;-82
2023/12/12 00:29:35;;;;;;;6.40;1.70;;;11.70;99.90;;;;;;5094124;28;20179;-81
2023/12/12 00:32:01;;;;;;;9.10;1.90;;;11.70;99.90;;;;;;5072622;28;20172;-82
2023/12/12 00:34:27;;;;;;;10.98;1.90;;;11.60;99.90;;;;;;5076300;28;20233;-81
2023/12/12 00:36:52;;;;;;;7.97;2.43;;;11.60;99.90;;;;;;5075783;28;20172;-82
2023/12/12 00:39:18;;;;;;;7.87;1.80;;;11.50;99.90;;;;;;5094739;28;20254;-81
2023/12/12 00:41:44;;;;;;;6.90;2.40;;;11.50;99.90;;;;;;5072561;28;20274;-82
2023/12/12 00:44:10;;;;;;;5.87;2.70;;;11.50;99.90;;;;;;5090944;28;20175;-81
2023/12/12 00:46:35;;;;;;;7.57;1.60;;;11.40;99.90;;;;;;5085643;28;20704;-82
2023/12/12 00:49:01;;;;;;;6.20;1.50;;;11.50;99.90;;;;;;5072596;28;20168;-81
2023/12/12 00:51:27;;;;;;;5.53;1.40;;;11.50;99.90;;;;;;5055867;28;20204;-81
2023/12/12 00:53:52;;;;;;;9.20;1.43;;;11.40;99.90;;;;;;5055784;28;20208;-82
2023/12/12 00:56:18;;;;;;;6.67;1.60;;;11.40;99.90;;;;;;5055973;28;20570;-81
2023/12/12 00:58:43;;;;;;;4.90;1.40;;;11.40;99.90;;;;;;5091139;28;20187;-81
2023/12/12 01:01:11;;;;;;;11.47;1.60;;;11.30;99.90;;;;;;5072284;28;20204;-81
2023/12/12 01:03:38;;;;;;;7.07;2.22;;;11.30;99.90;;;;;;5073652;28;20180;-81
2023/12/12 01:06:03;;;;;;;11.48;2.45;;;11.20;99.90;;;;;;5055131;28;20298;-81
2023/12/12 01:08:29;;;;;;;11.73;1.93;;;11.20;99.90;;;;;;5084213;28;20284;-81
2023/12/12 01:10:55;;;;;;;5.63;1.27;;;11.20;99.90;;;;;;5092383;28;20578;-82
2023/12/12 01:13:20;;;;;;;9.33;1.73;;;11.10;99.90;;;;;;5071931;28;20234;-82
2023/12/12 01:15:46;;;;;;;10.10;1.97;;;11.10;99.90;;;;;;5086088;28;20192;-82
2023/12/12 01:18:12;;;;;;;4.33;1.47;;;11.10;99.90;;;;;;5093554;28;20815;-82
2023/12/12 01:20:37;;;;;;;8.73;1.57;;;11.10;99.90;;;;;;5074616;28;20199;-81
2023/12/12 01:23:03;;;;;;;6.03;2.77;;;11.20;99.90;;;;;;5093293;28;20160;-82
2023/12/12 01:25:30;;;;;;;6.77;2.10;;;11.10;99.90;;;;;;5093230;28;20195;-82
2023/12/12 01:27:55;;;;;;;6.53;1.30;;;11.10;99.90;;;;;;5075053;28;20171;-82
2023/12/12 01:30:21;;;;;;;5.00;1.50;;;11.10;99.90;;;;;;5071747;28;20267;-82
2023/12/12 01:32:47;;;;;;;7.03;1.80;;;11.20;99.90;;;;;;5088092;28;20537;-82
2023/12/12 01:35:12;;;;;;;7.60;1.73;;;11.10;99.90;;;;;;5062521;28;20680;-82
2023/12/12 01:37:38;;;;;;;6.50;1.47;;;11.10;99.90;;;;;;5063675;28;20180;-82
2023/12/12 01:40:04;;;;;;;9.13;2.03;;;11.10;99.90;;;;;;5061993;28;20200;-82
2023/12/12 01:42:30;;;;;;;6.00;2.15;;;11.10;99.90;;;;;;5093657;28;20600;-82
2023/12/12 01:44:56;;;;;;;5.90;1.67;;;11.10;99.90;;;;;;5093467;28;20286;-81
2023/12/12 01:47:22;;;;;;;8.43;2.40;;;11.10;99.90;;;;;;5075148;28;20917;-81
2023/12/12 01:49:48;;;;;;;7.28;1.60;;;11.10;99.90;;;;;;5075107;28;20333;-81
2023/12/12 01:52:15;;;;;;;6.45;1.80;;;11.00;99.90;;;;;;5073104;28;20185;-81
2023/12/12 01:54:46;;;;;;;7.35;2.88;;;11.10;99.90;;;;;;5072868;28;20200;-81
2023/12/12 01:57:13;;;;;;;13.77;2.22;;;11.00;99.90;;;;;;5062860;28;20183;-81
2023/12/12 01:59:39;;;;;;;10.48;2.75;;;11.00;99.90;;;;;;5084807;28;20207;-81
2023/12/12 02:02:06;;;;;;;6.37;1.40;;;11.00;99.90;;;;;;5093709;28;20175;-81
2023/12/12 02:04:32;;;;;;;7.30;1.58;;;11.10;99.90;;;;;;5076022;28;20597;-81
2023/12/12 02:07:02;;;;;;;12.38;2.17;;;11.10;99.90;;;;;;5093598;28;20541;-80
2023/12/12 02:09:28;;;;;;;7.32;1.98;;;11.10;99.90;;;;;;5088775;28;20553;-81
2023/12/12 02:12:07;;;;;;;6.18;1.67;;;11.10;99.90;;;;;;5098143;28;20175;-81
2023/12/12 02:14:37;;;;;;;7.20;2.40;;;11.10;99.90;;;;;;5075402;28;20528;-80
2023/12/12 02:17:03;;;;;;;10.20;2.70;;;11.10;99.90;;;;;;5070703;28;20598;-80
2023/12/12 02:19:28;;;;;;;8.10;1.75;;;11.10;99.90;;;;;;5072488;28;20229;-80
2023/12/12 02:21:54;;;;;;;8.73;2.40;;;11.10;99.90;;;;;;5075964;28;20658;-80
2023/12/12 02:24:20;;;;;;;9.40;1.83;;;11.10;99.90;;;;;;5057383;28;20187;-80
2023/12/12 02:26:45;;;;;;;6.30;1.50;;;11.10;99.90;;;;;;5070886;28;20188;-81
2023/12/12 02:29:11;;;;;;;8.30;1.77;;;11.10;99.90;;;;;;5090282;28;20191;-81
2023/12/12 02:31:37;;;;;;;9.60;2.30;;;11.10;99.90;;;;;;5073473;28;20207;-81
2023/12/12 02:34:02;;;;;;;10.03;3.23;;;11.10;99.90;;;;;;5091953;28;20543;-81
2023/12/12 02:36:28;;;;;;;7.70;1.53;;;11.20;99.90;;;;;;5080593;28;20309;-80
2023/12/12 02:38:54;;;;;;;8.87;2.00;;;11.20;99.90;;;;;;5075668;28;20172;-79
2023/12/12 02:41:20;;;;;;;9.23;1.80;;;11.10;99.90;;;;;;5057733;28;20211;-80
2023/12/12 02:43:45;;;;;;;10.40;2.93;;;11.10;99.90;;;;;;5055017;28;20575;-80
2023/12/12 02:46:11;;;;;;;8.10;2.50;;;11.10;99.90;;;;;;5088730;28;20196;-81
2023/12/12 02:48:37;;;;;;;8.10;2.17;;;11.10;99.90;;;;;;5073619;28;20180;-80
2023/12/12 02:51:03;;;;;;;18.63;2.27;;;11.10;99.90;;;;;;5093637;28;20576;-81
2023/12/12 02:53:28;;;;;;;8.20;1.80;;;11.10;99.90;;;;;;5091579;28;20186;-81
2023/12/12 02:55:54;;;;;;;7.40;1.53;;;11.10;99.90;;;;;;5090042;28;20633;-81
2023/12/12 02:58:20;;;;;;;15.53;2.13;;;11.10;99.90;;;;;;5091570;28;20615;-81
2023/12/12 03:00:45;;;;;;;8.63;2.00;;;11.10;99.90;;;;;;5086771;28;20203;-81
2023/12/12 03:03:11;;;;;;;5.50;1.73;;;11.10;99.90;;;;;;5082382;28;20180;-80
2023/12/12 03:05:37;;;;;;;8.27;2.13;;;11.10;99.90;;;;;;5081915;28;20203;-81
2023/12/12 03:08:03;;;;;;;10.40;2.30;;;11.00;99.90;;;;;;5091507;28;20164;-81
2023/12/12 03:10:28;;;;;;;9.70;2.67;;;11.00;99.90;;;;;;5072905;28;20722;-81
2023/12/12 03:12:54;;;;;;;7.40;2.67;;;11.00;99.90;;;;;;5073577;28;20636;-81
2023/12/12 03:15:20;;;;;;;6.10;1.63;;;11.00;99.90;;;;;;5070838;28;20231;-81
2023/12/12 03:17:45;;;;;;;10.90;1.93;;;11.00;99.90;;;;;;5062970;28;20202;-81
2023/12/12 03:20:11;;;;;;;7.33;1.60;;;11.00;99.90;;;;;;5078909;28;20232;-81
2023/12/12 03:22:37;;;;;;;7.10;1.40;;;10.90;99.90;;;;;;5072228;28;20678;-81
2023/12/12 03:25:04;;;;;;;8.37;2.40;;;11.00;99.90;;;;;;5069963;28;20196;-80
2023/12/12 03:27:30;;;;;;;6.32;1.50;;;11.00;99.90;;;;;;5093449;28;20177;-80
2023/12/12 03:29:55;;;;;;;6.93;2.10;;;10.90;99.90;;;;;;5074022;28;20192;-81
2023/12/12 03:32:21;;;;;;;11.90;1.80;;;10.90;99.90;;;;;;5092117;28;20334;-81
2023/12/12 03:34:46;;;;;;;9.97;2.33;;;10.90;99.90;;;;;;5072904;28;20179;-80
2023/12/12 03:37:13;;;;;;;11.70;2.17;;;10.90;99.90;;;;;;5091176;28;20175;-81
2023/12/12 03:39:41;;;;;;;7.75;1.67;;;10.90;99.90;;;;;;5056132;28;20241;-81
2023/12/12 03:42:06;;;;;;;9.25;1.70;;;10.80;99.90;;;;;;5072809;28;20178;-81
2023/12/12 03:44:32;;;;;;;9.83;1.70;;;10.80;99.90;;;;;;5076090;28;20159;-80
2023/12/12 03:46:58;;;;;;;8.77;1.20;;;10.80;99.90;;;;;;5076672;28;20262;-81
2023/12/12 03:49:23;;;;;;;6.47;1.70;;;10.80;99.90;;;;;;5094759;28;20164;-80
2023/12/12 03:51:49;;;;;;;8.07;1.70;;;10.80;99.90;;;;;;5073156;28;20202;-81
2023/12/12 03:54:15;;;;;;;7.00;1.80;;;10.80;99.90;;;;;;5074374;28;20667;-81
2023/12/12 03:56:40;;;;;;;9.23;1.90;;;10.80;99.90;;;;;;5063887;28;20200;-81
2023/12/12 03:59:06;;;;;;;6.93;1.20;;;10.80;99.90;;;;;;5071065;28;20621;-81
2023/12/12 04:01:32;;;;;;;8.03;1.80;;;10.80;99.90;;;;;;5076547;28;20301;-81
2023/12/12 04:03:58;;;;;;;5.20;1.50;;;10.70;99.90;;;;;;5080858;28;20220;-81
2023/12/12 04:06:24;;;;;;;6.45;1.17;;;10.70;99.90;;;;;;5062716;28;20222;-81
2023/12/12 04:08:50;;;;;;;5.33;1.23;;;10.70;99.90;;;;;;5076087;28;20207;-81
2023/12/12 04:11:16;;;;;;;6.72;1.63;;;10.80;99.90;;;;;;5094457;28;20199;-81
2023/12/12 04:13:41;;;;;;;13.93;2.23;;;10.80;99.90;;;;;;5072749;28;20215;-81
2023/12/12 04:16:07;;;;;;;9.67;2.23;;;10.70;99.90;;;;;;5073949;28;20200;-81
2023/12/12 04:18:33;;;;;;;6.30;1.40;;;10.70;99.90;;;;;;5040854;28;20186;-81
2023/12/12 04:20:59;;;;;;;10.10;2.73;;;10.70;99.90;;;;;;5076085;28;20204;-81
2023/12/12 04:23:24;;;;;;;9.77;2.40;;;10.70;99.90;;;;;;5076185;28;20186;-81
2023/12/12 04:25:50;;;;;;;6.90;2.13;;;10.60;99.90;;;;;;5059338;28;20612;-81
2023/12/12 04:28:16;;;;;;;8.17;1.93;;;10.60;99.90;;;;;;5094146;28;20168;-81
2023/12/12 04:30:41;;;;;;;10.93;2.40;;;10.70;99.90;;;;;;5094321;28;20199;-81
2023/12/12 04:33:07;;;;;;;7.17;2.13;;;10.70;99.90;;;;;;5094298;28;20175;-81
2023/12/12 04:35:33;;;;;;;11.43;2.97;;;10.70;99.90;;;;;;5076475;28;20196;-81
2023/12/12 04:37:58;;;;;;;24.87;3.73;;;10.70;99.90;;;;;;5102194;28;20611;-81
2023/12/12 04:40:27;;;;;;;8.03;1.93;;;10.60;99.90;;;;;;5062851;28;20689;-81
2023/12/12 04:42:53;;;;;;;7.13;1.85;;;10.60;99.90;;;;;;5094936;28;20575;-82
2023/12/12 04:45:19;;;;;;;6.65;1.85;;;10.60;99.90;;;;;;5076332;28;20576;-81
2023/12/12 04:47:45;;;;;;;10.20;2.37;;;10.60;99.90;;;;;;5075947;28;20187;-82
2023/12/12 04:50:10;;;;;;;10.27;2.20;;;10.60;99.90;;;;;;5072498;28;20180;-82
2023/12/12 04:52:36;;;;;;;6.90;2.37;;;10.60;99.90;;;;;;5101162;28;20164;-82
2023/12/12 04:55:02;;;;;;;10.40;1.93;;;10.60;99.90;;;;;;5107328;28;20203;-80
2023/12/12 04:57:28;;;;;;;8.93;1.85;;;10.60;99.90;;;;;;5095826;28;20179;-82
2023/12/12 04:59:53;;;;;;;5.73;1.70;;;10.60;99.90;;;;;;5093682;28;20261;-82
2023/12/12 05:02:20;;;;;;;8.23;2.00;;;10.60;99.90;;;;;;5094502;28;20168;-81
2023/12/12 05:04:45;;;;;;;11.40;2.00;;;10.60;99.90;;;;;;5076401;28;20218;-80
2023/12/12 05:07:11;;;;;;;8.57;2.37;;;10.60;99.90;;;;;;5076308;28;20180;-81
2023/12/12 05:09:37;;;;;;;9.60;2.63;;;10.60;99.90;;;;;;5094226;28;20183;-82
2023/12/12 05:12:03;;;;;;;9.27;2.10;;;10.70;99.90;;;;;;5076665;28;20656;-81
2023/12/12 05:14:29;;;;;;;8.83;1.60;;;10.60;99.90;;;;;;5093675;28;20626;-82
2023/12/12 05:16:55;;;;;;;12.13;2.50;;;10.60;99.90;;;;;;5094231;28;21153;-81
2023/12/12 05:19:20;;;;;;;5.87;2.17;;;10.60;99.90;;;;;;5080505;28;20656;-79
2023/12/12 05:21:46;;;;;;;9.87;3.00;;;10.60;99.90;;;;;;5097211;28;20603;-82
2023/12/12 05:24:12;;;;;;;12.83;3.30;;;10.70;99.90;;;;;;5096496;28;20270;-82
2023/12/12 05:26:38;;;;;;;8.30;2.10;;;10.70;99.90;;;;;;5076857;28;20191;-83
2023/12/12 05:29:04;;;;;;;11.00;1.97;;;10.70;99.90;;;;;;5076438;28;20184;-81
2023/12/12 05:31:30;;;;;;;10.32;2.40;;;10.70;99.90;;;;;;5076253;28;20627;-82
2023/12/12 05:33:55;;;;;;;9.77;1.70;;;10.70;99.90;;;;;;5076010;28;20171;-82
2023/12/12 05:36:21;;;;;;;3.37;1.70;;;10.70;99.90;;;;;;5094373;28;20274;-81
2023/12/12 05:38:46;;;;;;;10.40;2.10;;;10.70;99.90;;;;;;5077260;28;20171;-82
2023/12/12 05:41:12;;;;;;;9.13;2.60;;;10.80;99.90;;;;;;5076574;28;20204;-82
2023/12/12 05:43:38;;;;;;;6.40;1.60;;;10.70;99.90;;;;;;5064319;28;20183;-81
2023/12/12 05:46:04;;;;;;;9.07;2.33;;;10.80;99.90;;;;;;5092582;28;20227;-81
2023/12/12 05:48:30;;;;;;;9.30;2.28;;;10.80;99.90;;;;;;5074639;28;20658;-82
2023/12/12 05:50:56;;;;;;;9.30;2.33;;;10.80;99.90;;;;;;5092634;28;20267;-81
2023/12/12 05:53:22;;;;;;;6.83;2.43;;;10.90;99.90;;;;;;5068452;28;20593;-81
2023/12/12 05:55:47;;;;;;;9.40;2.97;;;10.90;99.90;;;;;;5060781;28;20211;-81
2023/12/12 05:58:13;;;;;;;12.07;2.97;;;10.80;99.90;;;;;;5092259;28;20187;-80
2023/12/12 06:00:39;;;;;;;12.20;2.00;;;10.90;99.90;;;;;;5071776;28;20207;-82
2023/12/12 06:03:14;;;;;;;8.13;2.50;;;10.90;99.90;;;;;;5084481;28;20210;-79
2023/12/12 06:05:40;;;;;;;11.80;2.00;;;10.90;99.90;;;;;;5087763;28;20212;-80
2023/12/12 06:08:05;;;;;;;9.33;2.43;;;10.90;99.90;;;;;;5091463;28;20184;-80
2023/12/12 06:10:31;;;;;;;11.60;2.70;;;10.90;99.90;;;;;;5070089;28;20251;-79
2023/12/12 06:12:57;;;;;;;10.00;2.60;;;10.90;99.90;;;;;;5089013;28;20190;-81
2023/12/12 06:15:23;;;;;;;14.68;2.80;;;10.90;99.90;;;;;;5090856;28;20199;-81
2023/12/12 06:17:48;;;;;;;10.70;3.13;;;10.90;99.90;;;;;;5072596;28;20374;-81
2023/12/12 06:20:14;;;;;;;6.97;2.87;;;11.00;99.90;;;;;;5072456;28;20248;-79
2023/12/12 06:22:40;;;;;;;5.27;1.97;;;11.00;99.90;;;;;;5073220;28;20542;-80
2023/12/12 06:25:06;;;;;;;9.00;1.90;;;11.00;99.90;;;;;;5091258;28;20613;-79
2023/12/12 06:27:32;;;;;;;6.53;2.85;;;11.00;99.90;;;;;;5089974;28;20179;-79
2023/12/12 06:29:58;;;;;;;10.40;1.90;;;11.10;99.90;;;;;;5072702;28;20233;-79
2023/12/12 06:32:24;;;;;;;9.40;2.70;;;11.10;99.90;;;;;;5074520;28;20180;-79
2023/12/12 06:34:49;;;;;;;6.17;1.40;;;11.10;99.90;;;;;;5091253;28;20251;-79
2023/12/12 06:37:15;;;;;;;14.03;3.57;;;11.20;99.90;;;;;;5069049;28;20182;-79
2023/12/12 06:39:41;;;;;;;5.73;1.67;;;11.20;99.90;;;;;;5071611;28;20176;-77
2023/12/12 06:42:06;;;;;;;9.30;2.83;;;11.20;99.90;;;;;;5072198;28;20684;-77
2023/12/12 06:44:32;;;;;;;10.60;2.30;;;11.20;99.90;;;;;;5084128;28;20204;-78
2023/12/12 06:46:58;;;;;;;10.93;3.20;;;11.20;99.90;;;;;;5083249;28;20216;-77
2023/12/12 06:49:24;;;;;;;11.43;2.77;;;11.20;99.90;;;;;;5090410;28;20187;-78
2023/12/12 06:51:50;;;;;;;4.90;1.73;;;11.20;99.90;;;;;;5090632;28;20179;-78
2023/12/12 06:54:15;;;;;;;9.40;1.67;;;11.30;99.90;;;;;;5068772;28;20192;-76
2023/12/12 06:56:41;;;;;;;8.50;2.23;;;11.30;99.90;;;;;;5070310;28;20226;-76
2023/12/12 06:59:08;;;;;;;5.63;1.63;;;11.30;99.90;;;;;;5071982;28;20230;-77
2023/12/12 07:01:34;;;;;;;9.88;1.88;;;11.30;99.90;;;;;;5072007;28;20206;-77
2023/12/12 07:04:00;;;;;;;12.52;2.60;;;11.30;99.90;;;;;;5069235;28;20187;-80
2023/12/12 07:06:26;;;;;;;13.60;3.03;;;11.20;99.90;;;;;;5052614;28;20560;-77
2023/12/12 07:08:52;;;;;;;10.98;2.75;;;11.30;99.90;;;;;;5052582;28;20579;-76
2023/12/12 07:11:19;;;;;;;5.53;1.90;;;11.30;99.90;;;;;;5101135;28;20285;-77
2023/12/12 07:13:54;;;;;;;12.55;2.42;;;11.30;99.90;;;;;;5072580;28;20287;-78
2023/12/12 07:16:20;;;;;;;7.22;1.95;;;11.30;99.90;;;;;;5064091;28;20214;-78
2023/12/12 07:18:46;;;;;;;11.93;2.45;;;11.30;99.90;;;;;;5079831;28;20254;-79
2023/12/12 07:21:14;;;;;;;9.40;3.10;;;11.30;99.90;;;;;;5072752;28;20812;-80
2023/12/12 07:23:40;;;;;;;10.52;2.97;;;11.40;99.90;;;;;;5091260;28;20511;-80
2023/12/12 07:26:06;;;;;;;11.70;2.30;;;11.40;99.90;;;;;;5090314;28;20214;-80
2023/12/12 07:28:32;;;;;;;11.83;3.00;;;11.40;99.90;;;;;;5090506;28;20210;-80
2023/12/12 07:30:58;;;;;;;9.53;2.30;;;11.30;99.90;;;;;;5080320;28;20233;-81
2023/12/12 07:33:24;;;;;;;10.20;3.27;;;11.30;99.90;;;;;;5068589;28;20575;-80
2023/12/12 07:35:50;;;;;;;9.98;2.58;;;11.30;99.90;;;;;;5089088;28;20194;-81
2023/12/12 07:38:16;;;;;;;9.80;2.33;;;11.30;99.90;;;;;;5089854;28;20255;-81
2023/12/12 07:40:43;;;;;;;10.23;2.65;;;11.30;99.90;;;;;;5069991;28;20208;-81
2023/12/12 07:43:09;;;;;;;9.75;2.70;;;11.40;99.90;;;;;;5074754;28;20195;-80
2023/12/12 07:45:35;;;;;;;9.23;2.22;;;11.40;99.90;;;;;;5071874;28;20199;-79
2023/12/12 07:48:01;;;;;;;13.53;2.60;;;11.40;99.90;;;;;;5090199;28;20176;-79
2023/12/12 07:50:26;;;;;;;15.13;3.23;;;11.40;99.90;;;;;;5089917;28;20183;-80
2023/12/12 07:52:52;;;;;;;7.10;2.13;;;11.40;99.90;;;;;;5089999;28;20197;-78
2023/12/12 07:55:19;;;;;;;9.10;2.60;;;11.40;99.90;;;;;;5089974;28;20498;-79
2023/12/12 07:57:45;;;;;;;9.75;3.28;;;11.40;99.90;;;;;;5055176;28;20185;-79
2023/12/12 08:00:12;;;;;;;7.90;2.60;;;11.40;99.90;;;;;;5071364;28;20712;-79
2023/12/12 08:02:38;;;;;;;10.63;2.42;;;11.50;99.90;;;;;;5089928;28;20238;-78
2023/12/12 08:05:04;;;;;;;8.33;3.23;;;11.50;99.90;;;;;;5071843;28;20237;-78
2023/12/12 08:07:30;;;;;;;11.68;3.13;;;11.50;99.90;;;;;;5090006;28;20175;-78
2023/12/12 08:09:56;;;;;;;6.90;2.47;;;11.40;99.90;;;;;;5089643;28;20175;-78
2023/12/12 08:12:23;;;;;;;12.27;3.20;;;11.40;99.90;;;;;;5089865;28;20685;-79
2023/12/12 08:14:53;;;;;;;11.90;2.88;;;11.40;99.90;;;;;;5072132;28;20692;-79
2023/12/12 08:17:20;;;;;;;16.30;3.30;;;11.30;99.90;;;;;;5071753;28;20179;-79
2023/12/12 08:19:45;;;;;;;6.47;2.10;;;11.30;99.90;;;;;;5089952;28;20184;-78
2023/12/12 08:22:12;;;;;;;9.90;2.07;;;11.30;99.90;;;;;;5071716;28;20209;-78
2023/12/12 08:24:38;;;;;;;6.43;2.15;;;11.20;99.90;;;;;;5071873;28;20259;-78
2023/12/12 08:27:04;;;;;;;8.60;2.17;;;11.20;99.90;;;;;;5063633;28;20760;-78
2023/12/12 08:29:29;;;;;;;9.50;2.33;;;11.20;99.90;;;;;;5072593;28;20638;-78
2023/12/12 08:31:55;;;;;;;11.27;3.33;;;11.20;99.90;;;;;;5093617;28;21166;-79
2023/12/12 08:34:21;;;;;;;9.33;2.33;;;11.10;99.90;;;;;;5075403;28;20179;-78
2023/12/12 08:36:46;;;;;;;10.93;2.70;;;11.00;99.90;;;;;;5093349;28;20196;-78
2023/12/12 08:39:13;;;;;;;8.37;2.70;;;11.00;99.90;;;;;;5071660;28;20187;-77
2023/12/12 08:41:39;;;;;;;7.45;2.33;;;11.00;99.90;;;;;;5046835;28;20199;-79
2023/12/12 08:44:04;;;;;;;9.23;2.43;;;11.00;99.90;;;;;;5075081;28;20180;-78
2023/12/12 08:46:30;;;;;;;14.53;3.77;;;10.90;99.90;;;;;;5075164;28;20648;-78
2023/12/12 08:48:56;;;;;;;10.87;3.37;;;10.90;99.90;;;;;;5092977;28;20171;-79
2023/12/12 08:51:23;;;;;;;9.55;3.78;;;10.90;99.90;;;;;;5071659;28;20188;-79
2023/12/12 08:53:49;;;;;;;10.07;2.33;;;10.90;99.90;;;;;;5090732;28;20176;-79
2023/12/12 08:56:16;;;;;;;14.50;2.95;;;10.80;99.90;;;;;;5093066;28;20779;-78
2023/12/12 08:58:50;;;;;;;7.28;2.50;;;10.80;99.90;;;;;;5074348;28;20254;-78
2023/12/12 09:01:16;;;;;;;16.77;3.20;;;10.80;99.90;;;;;;5095336;28;20202;-78
2023/12/12 09:03:42;;;;;;;10.48;3.67;;;10.90;99.90;;;;;;5054946;28;20173;-78
2023/12/12 09:06:08;;;;;;;11.90;3.00;;;10.90;99.90;;;;;;5074544;28;20584;-78
2023/12/12 09:08:34;;;;;;;15.00;3.27;;;10.90;99.90;;;;;;5065948;28;20172;-79
2023/12/12 09:11:00;;;;;;;7.13;2.85;;;11.00;99.90;;;;;;5073695;28;20597;-78
2023/12/12 09:13:27;;;;;;;13.15;4.22;;;11.00;99.90;;;;;;5092678;28;20206;-77
2023/12/12 09:15:53;;;;;;;13.55;2.90;;;11.10;99.90;;;;;;5057527;28;20211;-76
2023/12/12 09:18:18;;;;;;;11.27;2.60;;;11.10;99.90;;;;;;5073230;28;20179;-76
2023/12/12 09:20:44;;;;;;;11.67;2.90;;;11.10;99.90;;;;;;5092321;28;20629;-76
2023/12/12 09:23:09;;;;;;;8.07;2.60;;;11.20;99.90;;;;;;5074327;28;20175;-76
2023/12/12 09:25:35;;;;;;;9.67;2.90;;;11.20;99.90;;;;;;5070879;28;20195;-76
2023/12/12 09:28:01;;;;;;;12.73;3.67;;;11.30;99.90;;;;;;5072724;28;20172;-76
2023/12/12 09:30:27;;;;;;;12.70;4.00;;;11.30;99.90;;;;;;5091913;28;20180;-76
2023/12/12 09:32:53;;;;;;;8.23;3.00;;;11.30;99.90;;;;;;5073902;28;20171;-76
2023/12/12 09:35:18;;;;;;;11.77;3.10;;;11.30;99.90;;;;;;5091496;28;20624;-76
2023/12/12 09:37:44;;;;;;;9.63;3.33;;;11.30;99.90;;;;;;5081328;28;20253;-76
2023/12/12 09:40:11;;;;;;;5.93;2.93;;;11.30;99.90;;;;;;5071280;28;20538;-76
2023/12/12 09:42:39;;;;;;;9.63;2.85;;;11.30;99.90;;;;;;5068607;28;20171;-76
2023/12/12 09:45:14;;;;;;;10.50;3.22;;;11.40;99.90;;;;;;5091832;28;20284;-75
2023/12/12 09:47:42;;;;;;;13.63;3.10;;;11.50;99.90;;;;;;5091708;28;20170;-75
2023/12/12 09:50:10;;;;;;;12.98;3.60;;;11.60;99.90;;;;;;5073920;28;20178;-76
2023/12/12 09:52:36;;;;;;;16.13;3.10;;;11.60;99.90;;;;;;5056998;28;20637;-75
2023/12/12 09:55:03;;;;;;;12.93;2.70;;;11.70;99.90;;;;;;5072607;28;20701;-76
2023/12/12 09:57:30;;;;;;;8.85;3.03;;;11.70;99.90;;;;;;5086536;28;20574;-76
2023/12/12 09:59:58;;;;;;;10.82;3.50;;;11.70;99.90;;;;;;5073028;28;20276;-76
2023/12/12 10:02:30;;;;;;;9.33;3.00;;;11.80;99.90;;;;;;5073536;28;20638;-77
2023/12/12 10:04:56;;;;;;;11.70;4.50;;;11.80;99.90;;;;;;5073034;28;20981;-76
2023/12/12 10:07:24;;;;;;;9.17;3.30;;;11.80;99.90;;;;;;5070168;28;20579;-76
2023/12/12 10:09:50;;;;;;;15.23;4.33;;;11.80;99.90;;;;;;5088505;28;20743;-76
2023/12/12 10:12:17;;;;;;;8.60;2.50;;;11.80;99.90;;;;;;5091611;28;20578;-76
2023/12/12 10:14:49;;;;;;;9.20;2.87;;;11.90;99.90;;;;;;5091501;28;20627;-76
2023/12/12 10:17:15;;;;;;;10.60;3.67;;;11.90;99.90;;;;;;5070003;28;20583;-76
2023/12/12 10:19:41;;;;;;;9.60;3.00;;;12.00;99.90;;;;;;5049079;28;20605;-76
2023/12/12 10:22:08;;;;;;;11.45;3.35;;;12.00;99.90;;;;;;5090978;28;20262;-76
2023/12/12 10:24:35;;;;;;;11.90;3.00;;;12.00;99.90;;;;;;5078338;28;20207;-76
2023/12/12 10:27:03;;;;;;;9.63;3.10;;;12.00;99.90;;;;;;5073069;28;20581;-76
2023/12/12 10:29:30;;;;;;;10.90;2.33;;;12.00;99.90;;;;;;5090985;28;20582;-76
2023/12/12 10:31:58;;;;;;;9.87;3.23;;;12.00;99.90;;;;;;5072881;28;20582;-76
2023/12/12 10:34:27;;;;;;;6.60;3.30;;;12.00;99.90;;;;;;5072996;28;20605;-76
2023/12/12 10:36:53;;;;;;;17.58;3.33;;;12.00;99.90;;;;;;5073085;28;20601;-76
2023/12/12 10:39:19;;;;;;;9.83;3.53;;;12.10;99.90;;;;;;5090912;28;20183;-76
2023/12/12 10:41:55;;;;;;;7.07;2.80;;;12.10;99.90;;;;;;5090005;28;20674;-76
2023/12/12 10:44:28;;;;;;;12.03;2.63;;;12.20;99.90;;;;;;5091287;28;20498;-76
2023/12/12 10:46:54;;;;;;;7.72;2.10;;;12.20;99.90;;;;;;5072952;28;20574;-76
2023/12/12 10:49:29;;;;;;;9.10;3.20;;;12.20;99.90;;;;;;5069030;28;20172;-76
2023/12/12 10:51:56;;;;;;;8.10;2.40;;;12.10;99.90;;;;;;5037011;28;20634;-75
2023/12/12 10:54:24;;;;;;;8.98;2.33;;;12.10;99.90;;;;;;5072132;28;20171;-76
2023/12/12 10:56:51;;;;;;;8.30;3.15;;;12.10;99.90;;;;;;5090233;28;20191;-76
2023/12/12 10:59:18;;;;;;;6.05;2.22;;;12.10;99.90;;;;;;5072428;28;20175;-76
2023/12/12 11:01:47;;;;;;;9.73;2.55;;;12.10;99.90;;;;;;5072642;28;20219;-75
2023/12/12 11:04:17;;;;;;;8.45;2.30;;;12.10;99.90;;;;;;5064830;28;20518;-76
2023/12/12 11:06:43;;;;;;;11.27;3.17;;;12.10;99.90;;;;;;5090829;28;20539;-76
2023/12/12 11:09:10;;;;;;;9.32;2.90;;;12.10;99.90;;;;;;5072194;28;20578;-75
2023/12/12 11:11:46;;;;;;;6.43;2.53;;;12.00;99.90;;;;;;5090958;28;20191;-76
2023/12/12 11:14:12;;;;;;;8.30;3.20;;;12.00;99.90;;;;;;5072639;28;20179;-75
2023/12/12 11:16:38;;;;;;;8.45;3.25;;;12.00;99.90;;;;;;5072431;28;20195;-76
2023/12/12 11:19:04;;;;;;;7.20;2.87;;;11.90;99.90;;;;;;5072246;28;20221;-76
2023/12/12 11:21:47;;;;;;;8.32;3.47;;;11.80;99.90;;;;;;5090631;28;20637;-76
2023/12/12 11:24:14;;;;;;;11.27;2.60;;;11.80;99.90;;;;;;5060883;28;20210;-75
2023/12/12 11:26:44;;;;;;;9.30;2.30;;;11.70;99.90;;;;;;5067758;28;20195;-75
2023/12/12 11:29:12;;;;;;;11.07;2.85;;;11.60;99.90;;;;;;5071818;28;20722;-76
2023/12/12 11:32:02;;;;;;;8.55;3.20;;;11.60;99.90;;;;;;5064254;28;20175;-76
2023/12/12 11:34:40;;;;;;;7.25;2.30;;;11.40;99.90;;;;;;5072578;28;20199;-76
2023/12/12 11:37:08;;;;;;;9.27;2.40;;;11.40;99.90;;;;;;5038945;28;20175;-76
2023/12/12 11:39:49;;;;;;;9.95;2.70;;;11.40;99.90;;;;;;5072001;28;20212;-76
2023/12/12 11:42:24;;;;;;;11.57;2.00;;;11.40;99.90;;;;;;5089241;28;20176;-76
2023/12/12 11:44:54;;;;;;;10.02;3.30;;;11.30;99.90;;;;;;5091167;28;20191;-76
2023/12/12 11:47:25;;;;;;;11.18;2.90;;;11.30;99.90;;;;;;5071997;28;20263;-76
2023/12/12 11:50:11;;;;;;;7.60;2.58;;;11.30;99.90;;;;;;5071564;28;20218;-76
2023/12/12 11:52:39;;;;;;;7.47;2.40;;;11.30;99.90;;;;;;5071999;28;20160;-76
2023/12/12 11:55:06;;;;;;;11.43;2.67;;;11.30;99.90;;;;;;5090219;28;20188;-76
2023/12/12 11:57:32;;;;;;;8.48;2.00;;;11.30;99.90;;;;;;5090271;28;20582;-76
2023/12/12 12:00:03;;;;;;;9.93;3.00;;;11.40;99.90;;;;;;5069177;28;20203;-76
2023/12/12 12:02:31;;;;;;;8.40;1.80;;;11.50;99.90;;;;;;5068935;28;20180;-75
2023/12/12 12:04:58;;;;;;;6.90;2.45;;;11.50;99.90;;;;;;5071321;28;20261;-75
2023/12/12 12:07:25;;;;;;;9.80;3.38;;;11.50;99.90;;;;;;5093772;28;20171;-75
2023/12/12 12:09:52;;;;;;;18.25;4.10;;;11.50;99.90;;;;;;5093751;28;20163;-75
2023/12/12 12:12:19;;;;;;;8.75;3.88;;;11.60;99.90;;;;;;5094032;28;20325;-75
2023/12/12 12:14:45;;;;;;;8.80;2.80;;;11.50;99.90;;;;;;5075790;28;20216;-75
2023/12/12 12:17:10;;;;;;;12.03;3.20;;;11.50;99.90;;;;;;5058956;28;20263;-75
2023/12/12 12:19:38;;;;;;;8.17;2.93;;;11.60;99.90;;;;;;5075482;28;20674;-75
2023/12/12 12:22:11;;;;;;;7.18;2.58;;;11.60;99.90;;;;;;5073825;28;20176;-75
2023/12/12 12:24:41;;;;;;;12.50;3.08;;;11.60;99.90;;;;;;5072349;28;20260;-75
2023/12/12 12:27:07;;;;;;;8.15;3.15;;;11.70;99.90;;;;;;5074004;28;20257;-76
2023/12/12 12:29:33;;;;;;;10.93;3.63;;;11.70;99.90;;;;;;5093477;28;20199;-75
2023/12/12 12:32:17;;;;;;;10.67;3.80;;;11.70;99.90;;;;;;5093640;28;20176;-76
2023/12/12 12:34:43;;;;;;;9.80;3.85;;;11.70;99.90;;;;;;5068845;28;22080;-76
2023/12/12 12:37:35;;;;;;;8.93;3.58;;;11.70;99.90;;;;;;5083703;28;20229;-77
2023/12/12 12:40:05;;;;;;;9.75;3.70;;;11.60;99.90;;;;;;5068103;28;20221;-77